createdAt,value
2017-11-19T00:03:29.620Z,90.51
2017-11-19T00:05:58.857Z,90.36
2017-11-19T00:08:28.839Z,90.38
2017-11-19T00:10:58.037Z,90.25
2017-11-19T00:13:27.212Z,90.27
2017-11-19T00:15:56.414Z,90.23
2017-11-19T00:18:25.580Z,90.00
2017-11-19T00:20:55.545Z,89.52
2017-11-19T00:23:25.165Z,89.83
2017-11-19T00:25:54.351Z,89.81
2017-11-19T00:28:23.536Z,89.69
2017-11-19T00:30:52.721Z,89.91
2017-11-19T00:33:21.886Z,90.01
2017-11-19T00:35:51.841Z,90.08
2017-11-19T00:38:21.044Z,89.96
2017-11-19T00:40:50.303Z,90.08
2017-11-19T00:43:20.197Z,89.97
2017-11-19T00:45:49.369Z,90.20
2017-11-19T00:48:18.509Z,90.17
2017-11-19T00:50:47.720Z,90.00
2017-11-19T00:53:17.028Z,90.04
2017-11-19T00:55:46.227Z,90.04
2017-11-19T00:58:15.395Z,90.05
2017-11-19T01:00:44.575Z,89.88
2017-11-19T01:03:14.538Z,90.15
2017-11-19T01:05:43.755Z,90.21
2017-11-19T01:08:12.982Z,90.76
2017-11-19T01:10:45.076Z,90.84
2017-11-19T01:13:15.336Z,90.81
2017-11-19T01:15:44.554Z,90.57
2017-11-19T01:18:13.743Z,90.69
2017-11-19T01:20:42.968Z,90.79
2017-11-19T01:23:12.928Z,90.93
2017-11-19T01:25:42.104Z,91.04
2017-11-19T01:28:11.316Z,91.09
2017-11-19T01:30:40.496Z,90.85
2017-11-19T01:33:09.706Z,90.65
2017-11-19T01:35:38.889Z,90.42
2017-11-19T01:38:08.076Z,90.73
2017-11-19T01:40:37.296Z,90.66
2017-11-19T01:43:06.491Z,90.54
2017-11-19T01:45:35.688Z,89.53
2017-11-19T01:48:04.886Z,89.50
2017-11-19T01:50:34.061Z,89.52
2017-11-19T01:53:03.318Z,89.09
2017-11-19T01:55:32.511Z,88.59
2017-11-19T01:58:01.700Z,88.31
2017-11-19T02:00:30.970Z,88.21
2017-11-19T02:03:00.182Z,88.00
2017-11-19T02:05:29.381Z,88.22
2017-11-19T02:07:58.652Z,88.13
2017-11-19T02:10:27.823Z,87.93
2017-11-19T02:12:57.017Z,88.42
2017-11-19T02:15:27.689Z,88.17
2017-11-19T02:17:56.887Z,88.19
2017-11-19T02:20:26.067Z,88.44
2017-11-19T02:22:56.005Z,88.70
2017-11-19T02:25:25.297Z,88.38
2017-11-19T02:27:54.476Z,88.54
2017-11-19T02:30:23.855Z,88.11
2017-11-19T02:32:53.021Z,88.26
2017-11-19T02:35:22.214Z,88.14
2017-11-19T02:37:51.384Z,87.82
2017-11-19T02:40:20.680Z,87.91
2017-11-19T02:42:49.912Z,87.78
2017-11-19T02:45:19.088Z,88.08
2017-11-19T02:47:48.288Z,88.42
2017-11-19T02:50:17.444Z,88.39
2017-11-19T02:52:46.639Z,88.14
2017-11-19T02:55:16.701Z,88.03
2017-11-19T02:57:45.887Z,88.09
2017-11-19T03:00:15.075Z,88.59
2017-11-19T03:02:44.266Z,88.36
2017-11-19T03:05:13.449Z,88.74
2017-11-19T03:07:43.414Z,88.62
2017-11-19T03:10:12.689Z,88.53
2017-11-19T03:12:41.982Z,88.77
2017-11-19T03:15:11.506Z,88.58
2017-11-19T03:17:40.658Z,88.54
2017-11-19T03:20:10.621Z,88.76
2017-11-19T03:22:39.784Z,89.07
2017-11-19T03:25:09.085Z,88.85
2017-11-19T03:27:38.264Z,88.64
2017-11-19T03:30:08.248Z,88.58
2017-11-19T03:32:37.420Z,88.56
2017-11-19T03:35:06.664Z,88.28
2017-11-19T03:37:35.849Z,88.27
2017-11-19T03:40:05.021Z,88.68
2017-11-19T03:42:34.212Z,88.71
2017-11-19T03:45:03.396Z,89.08
2017-11-19T03:47:32.607Z,88.83
2017-11-19T03:50:01.801Z,89.05
2017-11-19T03:52:30.979Z,89.21
2017-11-19T03:55:00.166Z,89.07
2017-11-19T03:57:29.366Z,89.08
2017-11-19T03:59:58.546Z,89.21
2017-11-19T04:02:28.727Z,89.37
2017-11-19T04:04:57.898Z,89.16
2017-11-19T04:07:27.174Z,89.19
2017-11-19T04:09:57.133Z,89.25
2017-11-19T04:12:26.307Z,89.34
2017-11-19T04:14:55.546Z,89.76
2017-11-19T04:17:24.941Z,90.10
2017-11-19T04:19:54.170Z,90.10
2017-11-19T04:22:24.119Z,90.35
2017-11-19T04:24:53.544Z,90.04
2017-11-19T04:27:22.718Z,90.12
2017-11-19T04:29:51.930Z,90.34
2017-11-19T04:32:21.102Z,90.46
2017-11-19T04:34:50.294Z,90.47
2017-11-19T04:37:19.523Z,90.55
2017-11-19T04:39:48.830Z,90.67
2017-11-19T04:42:18.015Z,90.93
2017-11-19T04:44:47.301Z,91.42
2017-11-19T04:47:17.234Z,91.22
2017-11-19T04:49:46.410Z,90.97
2017-11-19T04:52:15.684Z,90.95
2017-11-19T04:54:45.045Z,91.09
2017-11-19T04:57:15.736Z,91.07
2017-11-19T04:59:44.966Z,90.76
2017-11-19T05:02:14.147Z,90.82
2017-11-19T05:04:43.339Z,90.93
2017-11-19T05:07:12.549Z,90.76
2017-11-19T05:09:41.724Z,90.71
2017-11-19T05:12:10.891Z,91.25
2017-11-19T05:14:41.006Z,90.81
2017-11-19T05:17:11.020Z,90.64
2017-11-19T05:19:40.984Z,90.62
2017-11-19T05:22:10.183Z,90.61
2017-11-19T05:24:39.384Z,90.58
2017-11-19T05:27:08.558Z,90.60
2017-11-19T05:29:37.748Z,90.43
2017-11-19T05:32:07.015Z,90.45
2017-11-19T05:34:36.982Z,90.20
2017-11-19T05:37:06.157Z,89.98
2017-11-19T05:39:35.333Z,89.94
2017-11-19T05:42:05.303Z,89.58
2017-11-19T05:44:34.492Z,89.44
2017-11-19T05:47:03.686Z,89.58
2017-11-19T05:49:32.938Z,89.54
2017-11-19T05:52:03.030Z,88.96
2017-11-19T05:54:32.209Z,88.67
2017-11-19T05:57:01.411Z,88.87
2017-11-19T05:59:30.601Z,88.35
2017-11-19T06:01:59.799Z,88.47
2017-11-19T06:04:29.098Z,87.88
2017-11-19T06:06:58.299Z,88.08
2017-11-19T06:09:27.539Z,87.46
2017-11-19T06:11:56.751Z,87.58
2017-11-19T06:14:25.925Z,88.01
2017-11-19T06:16:55.878Z,88.32
2017-11-19T06:19:25.517Z,88.55
2017-11-19T06:21:54.702Z,87.49
2017-11-19T06:24:23.875Z,88.06
2017-11-19T06:26:53.090Z,87.82
2017-11-19T06:29:22.271Z,88.46
2017-11-19T06:31:51.479Z,88.57
2017-11-19T06:34:20.698Z,88.52
2017-11-19T06:36:49.861Z,88.32
2017-11-19T06:39:19.193Z,88.41
2017-11-19T06:41:48.346Z,88.36
2017-11-19T06:44:18.298Z,88.44
2017-11-19T06:46:48.308Z,88.45
2017-11-19T06:49:17.526Z,88.44
2017-11-19T06:51:46.692Z,88.46
2017-11-19T06:54:15.822Z,88.81
2017-11-19T06:56:45.016Z,88.92
2017-11-19T06:59:14.189Z,88.46
2017-11-19T07:01:43.386Z,88.42
2017-11-19T07:04:12.570Z,88.63
2017-11-19T07:06:41.768Z,88.68
2017-11-19T07:09:10.935Z,88.80
2017-11-19T07:11:40.927Z,88.79
2017-11-19T07:14:10.873Z,88.62
2017-11-19T07:16:40.816Z,88.95
2017-11-19T07:19:09.995Z,89.01
2017-11-19T07:21:39.211Z,88.85
2017-11-19T07:24:08.424Z,89.11
2017-11-19T07:26:37.628Z,89.35
2017-11-19T07:29:06.792Z,88.98
2017-11-19T07:31:35.991Z,89.15
2017-11-19T07:34:05.152Z,88.72
2017-11-19T07:36:35.148Z,88.86
2017-11-19T07:39:04.322Z,89.20
2017-11-19T07:41:33.648Z,89.04
2017-11-19T07:44:02.958Z,89.29
2017-11-19T07:46:32.126Z,88.68
2017-11-19T07:49:01.323Z,88.80
2017-11-19T07:51:30.526Z,89.02
2017-11-19T07:53:59.700Z,88.78
2017-11-19T07:56:28.871Z,88.99
2017-11-19T07:58:58.174Z,88.56
2017-11-19T08:01:27.340Z,89.11
2017-11-19T08:03:56.522Z,88.47
2017-11-19T08:06:25.693Z,88.68
2017-11-19T08:08:54.953Z,88.32
2017-11-19T08:11:25.093Z,88.55
2017-11-19T08:13:54.300Z,88.53
2017-11-19T08:16:23.473Z,88.60
2017-11-19T08:18:52.690Z,88.34
2017-11-19T08:21:22.606Z,88.50
2017-11-19T08:23:51.780Z,88.79
2017-11-19T08:26:20.967Z,88.10
2017-11-19T08:28:50.165Z,88.61
2017-11-19T08:31:20.171Z,88.24
2017-11-19T08:33:50.088Z,88.11
2017-11-19T08:36:19.296Z,88.08
2017-11-19T08:38:49.230Z,87.68
2017-11-19T08:41:18.410Z,88.22
2017-11-19T08:43:47.601Z,88.09
2017-11-19T08:46:16.990Z,88.41
2017-11-19T08:48:47.013Z,88.13
2017-11-19T08:51:16.988Z,88.36
2017-11-19T08:53:46.211Z,88.48
2017-11-19T08:56:15.393Z,88.22
2017-11-19T08:58:44.573Z,87.92
2017-11-19T09:01:13.744Z,87.37
2017-11-19T09:03:42.944Z,87.80
2017-11-19T09:06:12.146Z,87.79
2017-11-19T09:08:41.310Z,88.40
2017-11-19T09:11:11.405Z,88.62
2017-11-19T09:13:42.190Z,88.09
2017-11-19T09:16:11.391Z,86.78
2017-11-19T09:18:40.567Z,86.94
2017-11-19T09:21:09.743Z,86.98
2017-11-19T09:23:39.716Z,87.18
2017-11-19T09:26:09.006Z,86.66
2017-11-19T09:28:38.198Z,86.43
2017-11-19T09:31:08.383Z,86.46
2017-11-19T09:33:38.441Z,85.92
2017-11-19T09:36:07.615Z,85.93
2017-11-19T09:38:36.787Z,85.50
2017-11-19T09:41:06.140Z,85.65
2017-11-19T09:43:35.343Z,86.20
2017-11-19T09:46:04.550Z,85.57
2017-11-19T09:48:33.723Z,85.31
2017-11-19T09:51:02.903Z,85.23
2017-11-19T09:53:32.088Z,85.31
2017-11-19T09:56:01.302Z,84.96
2017-11-19T09:58:30.481Z,84.69
2017-11-19T10:01:00.426Z,83.00
2017-11-19T10:03:29.590Z,82.97
2017-11-19T10:05:58.964Z,84.22
2017-11-19T10:08:28.124Z,84.41
2017-11-19T10:10:57.431Z,83.79
2017-11-19T10:13:26.643Z,82.64
2017-11-19T10:15:55.818Z,82.80
2017-11-19T10:18:25.022Z,83.56
2017-11-19T10:20:54.347Z,82.96
2017-11-19T10:23:23.533Z,82.75
2017-11-19T10:25:52.801Z,83.07
2017-11-19T10:28:22.714Z,83.73
2017-11-19T10:30:51.881Z,83.70
2017-11-19T10:33:21.308Z,83.46
2017-11-19T10:35:50.437Z,82.65
2017-11-19T10:38:19.633Z,83.07
2017-11-19T10:40:49.027Z,82.31
2017-11-19T10:43:18.263Z,81.63
2017-11-19T10:45:48.325Z,80.02
2017-11-19T10:48:17.524Z,79.46
2017-11-19T10:50:46.846Z,80.86
2017-11-19T10:53:16.057Z,80.68
2017-11-19T10:55:45.296Z,81.76
2017-11-19T10:58:14.482Z,81.17
2017-11-19T11:00:44.429Z,81.31
2017-11-19T11:03:13.794Z,81.41
2017-11-19T11:05:43.123Z,80.20
2017-11-19T11:08:12.306Z,80.11
2017-11-19T11:10:41.498Z,80.10
2017-11-19T11:13:11.439Z,79.21
2017-11-19T11:15:40.799Z,80.24
2017-11-19T11:18:10.766Z,79.78
2017-11-19T11:20:39.952Z,79.38
2017-11-19T11:23:09.121Z,79.36
2017-11-19T11:25:38.330Z,79.94
2017-11-19T11:28:07.542Z,80.45
2017-11-19T11:30:36.710Z,79.28
2017-11-19T11:33:06.670Z,79.08
2017-11-19T11:35:35.917Z,79.23
2017-11-19T11:38:05.844Z,78.89
2017-11-19T11:40:35.113Z,78.77
2017-11-19T11:43:05.829Z,79.16
2017-11-19T11:45:35.920Z,79.87
2017-11-19T11:48:05.151Z,79.55
2017-11-19T11:50:34.329Z,79.05
2017-11-19T11:53:03.559Z,80.00
2017-11-19T11:55:32.813Z,79.56
2017-11-19T11:58:01.985Z,78.75
2017-11-19T12:00:31.187Z,79.82
2017-11-19T12:03:01.165Z,80.26
2017-11-19T12:05:31.252Z,81.09
2017-11-19T12:08:00.463Z,80.08
2017-11-19T12:10:29.684Z,80.77
2017-11-19T12:12:59.641Z,79.22
2017-11-19T12:15:29.169Z,79.37
2017-11-19T12:17:58.399Z,79.29
2017-11-19T12:20:27.789Z,78.68
2017-11-19T12:22:56.998Z,78.31
2017-11-19T12:25:26.163Z,78.00
2017-11-19T12:27:55.430Z,78.91
2017-11-19T12:30:24.671Z,79.09
2017-11-19T12:32:53.872Z,78.49
2017-11-19T12:35:23.009Z,78.80
2017-11-19T12:37:52.270Z,78.72
2017-11-19T12:40:21.469Z,79.57
2017-11-19T12:42:50.639Z,79.38
2017-11-19T12:45:19.832Z,78.15
2017-11-19T12:47:48.981Z,79.38
2017-11-19T12:50:18.323Z,78.06
2017-11-19T12:52:47.553Z,78.86
2017-11-19T12:55:16.770Z,78.09
2017-11-19T12:57:47.102Z,77.02
2017-11-19T13:00:16.338Z,76.37
2017-11-19T13:02:45.550Z,75.16
2017-11-19T13:05:14.764Z,76.54
2017-11-19T13:07:43.981Z,77.24
2017-11-19T13:10:14.071Z,76.60
2017-11-19T13:12:43.252Z,76.38
2017-11-19T13:15:12.529Z,75.99
2017-11-19T13:17:42.518Z,77.68
2017-11-19T13:20:12.481Z,78.82
2017-11-19T13:22:41.675Z,76.45
2017-11-19T13:25:11.671Z,76.31
2017-11-19T13:27:40.893Z,76.19
2017-11-19T13:30:10.082Z,75.44
2017-11-19T13:32:39.398Z,74.40
2017-11-19T13:48:09.523Z,74.38
2017-11-19T13:50:38.707Z,72.27
2017-11-19T13:53:07.961Z,72.96
2017-11-19T13:55:37.924Z,73.46
2017-11-19T13:58:07.236Z,73.13
2017-11-19T14:00:36.529Z,72.81
2017-11-19T14:03:06.556Z,71.77
2017-11-19T14:05:35.829Z,73.32
2017-11-19T14:08:05.024Z,72.68
2017-11-19T14:10:34.237Z,73.37
2017-11-19T14:13:03.466Z,72.14
2017-11-19T14:15:32.686Z,73.43
2017-11-19T14:18:01.942Z,73.38
2017-11-19T14:20:31.137Z,72.57
2017-11-19T14:23:01.229Z,72.32
2017-11-19T14:25:30.446Z,72.07
2017-11-19T14:27:59.759Z,72.97
2017-11-19T14:30:28.959Z,71.93
2017-11-19T14:32:58.168Z,71.99
2017-11-19T14:35:28.165Z,71.52
2017-11-19T14:37:57.422Z,72.14
2017-11-19T14:40:26.634Z,73.00
2017-11-19T14:42:55.872Z,73.03
2017-11-19T14:45:25.963Z,73.40
2017-11-19T14:47:55.319Z,73.14
2017-11-19T14:50:24.528Z,72.37
2017-11-19T14:52:53.751Z,72.10
2017-11-19T14:55:22.946Z,71.41
2017-11-19T14:57:52.161Z,72.53
2017-11-19T15:00:21.410Z,71.56
2017-11-19T15:02:51.741Z,72.35
2017-11-19T15:05:20.926Z,72.61
2017-11-19T15:07:50.213Z,72.95
2017-11-19T15:10:20.193Z,72.31
2017-11-19T15:12:49.503Z,72.94
2017-11-19T15:15:18.700Z,73.77
2017-11-19T15:17:48.881Z,73.97
2017-11-19T15:20:18.151Z,73.73
2017-11-19T15:22:47.373Z,74.04
2017-11-19T15:25:16.753Z,73.86
2017-11-19T15:27:45.952Z,74.07
2017-11-19T15:30:15.156Z,74.21
2017-11-19T15:32:44.382Z,74.39
2017-11-19T15:35:13.681Z,74.64
2017-11-19T15:37:42.906Z,75.26
2017-11-19T15:40:12.189Z,74.86
2017-11-19T15:42:41.420Z,75.55
2017-11-19T15:45:11.584Z,74.92
2017-11-19T15:47:40.796Z,75.02
2017-11-19T15:50:10.081Z,75.80
2017-11-19T15:52:39.341Z,76.30
2017-11-19T15:55:09.373Z,75.38
2017-11-19T15:57:38.633Z,74.70
2017-11-19T16:00:07.889Z,74.91
2017-11-19T16:02:37.161Z,74.96
2017-11-19T16:05:06.397Z,74.71
2017-11-19T16:07:35.606Z,74.88
2017-11-19T16:10:04.882Z,75.08
2017-11-19T16:12:34.129Z,74.81
2017-11-19T16:15:03.360Z,76.26
2017-11-19T16:17:32.559Z,76.44
2017-11-19T16:20:01.875Z,75.87
2017-11-19T16:22:31.158Z,76.38
2017-11-19T16:25:00.408Z,76.87
2017-11-19T16:27:29.667Z,77.04
2017-11-19T16:29:58.962Z,77.63
2017-11-19T16:32:28.221Z,77.81
2017-11-19T16:34:59.981Z,78.71
2017-11-19T16:37:29.241Z,78.44
2017-11-19T16:39:58.573Z,79.21
2017-11-19T16:42:28.551Z,79.44
2017-11-19T16:44:57.853Z,79.57
2017-11-19T16:47:27.083Z,79.63
2017-11-19T16:49:56.358Z,79.98
2017-11-19T16:52:25.584Z,80.22
2017-11-19T16:54:55.549Z,80.16
2017-11-19T16:57:24.876Z,80.41
2017-11-19T16:59:54.174Z,80.50
2017-11-19T17:02:23.397Z,80.79
2017-11-19T17:04:53.458Z,80.83
2017-11-19T17:07:22.755Z,81.01
2017-11-19T17:09:51.987Z,81.06
2017-11-19T17:12:21.253Z,81.37
2017-11-19T17:14:50.584Z,81.39
2017-11-19T17:17:19.868Z,81.81
2017-11-19T17:19:49.410Z,81.89
2017-11-19T17:22:20.124Z,82.28
2017-11-19T17:24:49.534Z,82.44
2017-11-19T17:27:18.729Z,82.85
2017-11-19T17:29:47.954Z,82.46
2017-11-19T17:32:17.149Z,82.33
2017-11-19T17:34:46.392Z,82.33
2017-11-19T17:37:15.747Z,81.91
2017-11-19T17:39:49.127Z,81.68
2017-11-19T17:42:20.383Z,81.89
2017-11-19T17:44:49.653Z,82.08
2017-11-19T17:47:18.909Z,82.26
2017-11-19T17:49:48.178Z,82.17
2017-11-19T17:52:18.340Z,82.32
2017-11-19T17:54:48.006Z,82.47
2017-11-19T17:57:17.454Z,82.18
2017-11-19T17:59:46.742Z,82.40
2017-11-19T18:02:16.097Z,83.23
2017-11-19T18:04:46.785Z,82.70
2017-11-19T18:07:16.400Z,83.07
2017-11-19T18:09:45.708Z,83.11
2017-11-19T18:12:14.888Z,83.19
2017-11-19T18:14:44.405Z,83.20
2017-11-19T18:17:13.683Z,83.22
2017-11-19T18:19:42.989Z,83.56
2017-11-19T18:22:13.001Z,83.68
2017-11-19T18:24:42.218Z,83.96
2017-11-19T18:27:11.795Z,84.18
2017-11-19T18:29:41.620Z,84.25
2017-11-19T18:32:10.905Z,84.17
2017-11-19T18:34:40.189Z,84.33
2017-11-19T18:37:10.571Z,84.72
2017-11-19T18:39:39.941Z,84.81
2017-11-19T18:42:10.605Z,85.22
2017-11-19T18:44:40.179Z,85.38
2017-11-19T18:47:09.790Z,85.45
2017-11-19T18:49:39.753Z,85.53
2017-11-19T18:52:09.046Z,85.45
2017-11-19T18:54:38.263Z,85.79
2017-11-19T18:57:07.911Z,85.95
2017-11-19T18:59:37.243Z,86.32
2017-11-19T19:02:06.527Z,86.34
2017-11-19T19:04:36.140Z,86.26
2017-11-19T19:07:05.753Z,85.86
2017-11-19T19:09:35.064Z,85.91
2017-11-19T19:12:04.792Z,85.57
2017-11-19T19:14:34.066Z,85.50
2017-11-19T19:17:03.727Z,85.50
2017-11-19T19:19:33.133Z,85.47
2017-11-19T19:22:02.649Z,85.47
2017-11-19T19:24:31.822Z,85.47
2017-11-19T19:27:01.023Z,85.48
2017-11-19T19:29:30.297Z,85.38
2017-11-19T19:31:59.566Z,85.56
2017-11-19T19:34:29.105Z,85.44
2017-11-19T19:36:59.083Z,85.18
2017-11-19T19:39:28.337Z,85.25
2017-11-19T19:41:58.442Z,85.29
2017-11-19T19:44:28.584Z,85.38
2017-11-19T19:46:57.960Z,85.21
2017-11-19T19:49:27.908Z,85.25
2017-11-19T19:51:57.125Z,85.26
2017-11-19T19:54:26.647Z,85.21
2017-11-19T19:56:55.833Z,85.24
2017-11-19T19:59:25.388Z,85.17
2017-11-19T20:01:54.596Z,85.20
2017-11-19T20:04:23.860Z,85.19
2017-11-19T20:06:53.174Z,85.25
2017-11-19T20:09:23.106Z,85.01
2017-11-19T20:11:52.306Z,84.93
2017-11-19T20:14:21.628Z,85.08
2017-11-19T20:16:51.061Z,85.27
2017-11-19T20:19:20.290Z,85.17
2017-11-19T20:21:50.092Z,85.18
2017-11-19T20:24:20.120Z,85.29
2017-11-19T20:26:49.389Z,85.06
2017-11-19T20:29:18.694Z,85.02
2017-11-19T20:31:48.174Z,85.20
2017-11-19T20:34:17.448Z,85.46
2017-11-19T20:36:46.759Z,85.47
2017-11-19T20:39:15.956Z,85.56
2017-11-19T20:41:45.532Z,85.54
2017-11-19T20:44:14.809Z,85.50
2017-11-19T20:46:44.793Z,85.42
2017-11-19T20:49:13.984Z,85.38
2017-11-19T20:51:43.189Z,85.41
2017-11-19T20:54:12.461Z,85.64
2017-11-19T20:56:41.733Z,85.64
2017-11-19T20:59:11.700Z,85.46
2017-11-19T21:01:40.976Z,85.52
2017-11-19T21:04:10.238Z,85.50
2017-11-19T21:06:39.458Z,85.55
2017-11-19T21:09:09.418Z,85.62
2017-11-19T21:11:38.620Z,85.75
2017-11-19T21:14:07.879Z,85.87
2017-11-19T21:16:37.793Z,85.99
2017-11-19T21:19:07.074Z,85.92
2017-11-19T21:21:36.269Z,85.84
2017-11-19T21:24:05.514Z,85.96
2017-11-19T21:26:34.698Z,86.04
2017-11-19T21:29:03.832Z,86.05
2017-11-19T21:31:33.785Z,85.94
2017-11-19T21:34:03.064Z,86.03
2017-11-19T21:36:33.059Z,86.26
2017-11-19T21:39:02.327Z,86.43
2017-11-19T21:41:31.560Z,86.70
2017-11-19T21:44:00.805Z,86.55
2017-11-19T21:46:30.061Z,86.75
2017-11-19T21:49:00.028Z,86.73
2017-11-19T21:51:29.328Z,87.22
2017-11-19T21:53:58.523Z,87.36
2017-11-19T21:56:27.860Z,87.46
2017-11-19T21:58:57.094Z,87.57
2017-11-19T22:01:26.278Z,87.49
2017-11-19T22:03:56.277Z,87.69
2017-11-19T22:06:25.518Z,87.79
2017-11-19T22:08:54.829Z,87.87
2017-11-19T22:11:24.001Z,87.97
2017-11-19T22:13:53.246Z,88.13
2017-11-19T22:16:22.475Z,88.22
2017-11-19T22:18:52.451Z,88.28
2017-11-19T22:21:21.683Z,88.51
2017-11-19T22:23:50.926Z,88.49
2017-11-19T22:26:20.132Z,88.38
2017-11-19T22:28:49.374Z,88.53
2017-11-19T22:31:18.574Z,88.63
2017-11-19T22:33:47.792Z,88.44
2017-11-19T22:36:17.007Z,88.52
2017-11-19T22:38:46.215Z,88.39
2017-11-19T22:41:15.442Z,88.38
2017-11-19T22:43:46.156Z,88.58
2017-11-19T22:46:15.351Z,88.32
2017-11-19T22:48:44.574Z,88.38
2017-11-19T22:51:15.283Z,88.54
2017-11-19T22:53:44.460Z,88.45
2017-11-19T22:56:13.722Z,88.34
2017-11-19T22:58:43.684Z,88.32
2017-11-19T23:01:12.840Z,88.43
2017-11-19T23:03:42.083Z,88.41
2017-11-19T23:06:11.286Z,88.35
2017-11-19T23:08:40.482Z,88.23
2017-11-19T23:11:10.471Z,88.08
2017-11-19T23:13:39.660Z,88.30
2017-11-19T23:16:08.874Z,88.14
2017-11-19T23:18:38.082Z,88.19
2017-11-19T23:21:07.277Z,88.21
2017-11-19T23:23:36.452Z,88.42
2017-11-19T23:26:05.654Z,88.18
2017-11-19T23:28:34.837Z,88.29
2017-11-19T23:31:04.970Z,88.24
2017-11-19T23:33:34.185Z,88.52
2017-11-19T23:36:03.405Z,88.78
2017-11-19T23:38:32.589Z,88.59
2017-11-19T23:41:01.810Z,88.60
2017-11-19T23:43:32.498Z,88.50
2017-11-19T23:46:01.706Z,88.47
2017-11-19T23:48:30.913Z,88.33
2017-11-19T23:51:00.103Z,88.22
2017-11-19T23:53:29.280Z,88.14
2017-11-19T23:55:58.451Z,87.94
2017-11-19T23:58:28.536Z,87.72
